Terminal Aerodrome Forecast
Issued by NWS

Home | Current Version | Previous Version | Text Only | Print | Product List | Glossary On
Versions: 1 2 3 4 5 6 7 8 9 10 11 12 13
000
FTUS45 KVEF 011100
TAFVGT
TAF
KVGT 011137Z 0112/0212 35003KT P6SM SCT080 OVC100
     FM011600 05005KT P6SM BKN070
     FM012000 11005KT P6SM SCT050 BKN070
     FM020100 20004KT P6SM -RA SCT040 BKN050 OVC070
     FM020500 30005KT 6SM -RA SCT040 BKN050 OVC070
      TEMPO 0205/0209 4SM RA BR SCT025 BKN040 OVC050=

USA.gov is the U.S. government's official web portal to all federal, state and local government web resources and services.